»·PEaware :: DAL7150 KLAX-KLAS

DAL7150 :: KLAX-KLAS

FLIGHT INFORMATION

Flight Status: Arrived
Operator:
Delta Air Lines
More flights by this operator :: More flights under this callsign
Pilot: John H. (20300)
Aircraft: AIRBUS A320
(A320)
More flights by this aircraft type
Origin: KLAX Los Angeles Intl
United States
Destination: KLAS McCarran Intl
United States
More flights between these airports :: More routes between these airports
Route: +ORCKA3 MISEN KEPEC6
File this flight plan on PilotEdge
Remarks:
Altitude:
(Current/Filed)
240ft
Speed:
(Current/Filed)
320kts
Departed: 23-Sep-18 08:46 AM
Arrived: 23-Sep-18 09:29 AM
Distance/Time
Traveled:
205nm/0:43
Distance/Time
To Go:
Arrived

Flight Plot

Page will automatically refresh every two minutes.

Flight plan parsing failed; only flown route is shown


Map Options




Map Legend


Flown Route
Filed Route
Departure Airport
Arrival Airport
Navaid (VOR, NDB)
Fix

Horizontal Profiles

Position Reports

Time Latitude Longitude Heading Altitude Ground
Speed
23-Sep-18 08:22 33.943972 -118.430042 87 140ft 0kts
23-Sep-18 08:23 33.943972 -118.430042 87 140ft 0kts
23-Sep-18 08:24 33.943972 -118.430042 87 140ft 0kts
23-Sep-18 08:25 33.943972 -118.430042 87 140ft 0kts
23-Sep-18 08:26 33.943972 -118.430042 87 140ft 0kts
23-Sep-18 08:27 33.943972 -118.430042 87 140ft 0kts
23-Sep-18 08:28 33.943972 -118.430042 87 140ft 0kts
23-Sep-18 08:29 33.943972 -118.430042 87 140ft 0kts
23-Sep-18 08:30 33.943972 -118.430042 87 140ft 0kts
23-Sep-18 08:31 33.943972 -118.430042 87 140ft 0kts
23-Sep-18 08:32 33.943972 -118.430042 87 140ft 0kts
23-Sep-18 08:33 33.943972 -118.430042 87 140ft 0kts
23-Sep-18 08:34 33.943972 -118.430042 87 140ft 0kts
23-Sep-18 08:35 33.943972 -118.430040 87 140ft 0kts
23-Sep-18 08:36 33.944483 -118.430623 299 140ft 6kts
23-Sep-18 08:37 33.944603 -118.430866 305 140ft 0kts
23-Sep-18 08:38 33.944604 -118.430868 305 140ft 0kts
23-Sep-18 08:39 33.944648 -118.430933 311 140ft 3kts
23-Sep-18 08:40 33.945379 -118.431857 277 140ft 12kts
23-Sep-18 08:41 33.946071 -118.431146 81 140ft 22kts
23-Sep-18 08:42 33.946844 -118.423772 82 140ft 21kts
23-Sep-18 08:43 33.947737 -118.415361 82 140ft 29kts
23-Sep-18 08:44 33.948739 -118.405673 82 140ft 29kts
23-Sep-18 08:45 33.949663 -118.401807 351 140ft 0kts
23-Sep-18 08:46 33.949666 -118.401808 351 140ft 0kts
23-Sep-18 08:47 33.950131 -118.401898 344 140ft 4kts
23-Sep-18 08:48 33.948785 -118.416136 262 193ft 141kts
23-Sep-18 08:49 33.943417 -118.464502 264 3252ft 150kts
23-Sep-18 08:50 33.939932 -118.512845 264 5787ft 147kts
23-Sep-18 08:51 33.934314 -118.566187 246 7777ft 180kts
23-Sep-18 08:52 33.893252 -118.558073 104 9601ft 244kts
23-Sep-18 08:53 33.932308 -118.468292 60 11447ft 370kts
23-Sep-18 08:54 33.985215 -118.351802 63 12934ft 405kts
23-Sep-18 08:55 34.043784 -118.236207 55 13645ft 409kts
23-Sep-18 08:56 34.109180 -118.121643 55 15446ft 422kts
23-Sep-18 08:57 34.176172 -118.002993 55 17253ft 432kts
23-Sep-18 08:58 34.244732 -117.881336 55 19054ft 445kts
23-Sep-18 08:59 34.315572 -117.755321 55 20862ft 459kts
23-Sep-18 09:00 34.389563 -117.627273 53 22662ft 470kts
23-Sep-18 09:01 34.466041 -117.499047 52 23959ft 468kts
23-Sep-18 09:02 34.544082 -117.368150 52 23992ft 479kts
23-Sep-18 09:03 34.622030 -117.237023 53 24003ft 479kts
23-Sep-18 09:04 34.699811 -117.105716 53 24067ft 479kts
23-Sep-18 09:05 34.764806 -116.995643 53 24106ft 479kts
23-Sep-18 09:06 34.855805 -116.841174 53 24033ft 485kts
23-Sep-18 09:07 34.921001 -116.729830 54 24029ft 485kts
23-Sep-18 09:08 34.997222 -116.593717 55 24034ft 485kts
23-Sep-18 09:09 35.085888 -116.435538 55 24035ft 484kts
23-Sep-18 09:10 35.159186 -116.332480 45 24035ft 484kts
23-Sep-18 09:11 35.269201 -116.195082 45 24031ft 484kts
23-Sep-18 09:12 35.347460 -116.096987 45 24032ft 484kts
23-Sep-18 09:13 35.441574 -115.978623 45 24030ft 484kts
23-Sep-18 09:14 35.535289 -115.860326 45 24028ft 484kts
23-Sep-18 09:15 35.628945 -115.741686 45 23664ft 483kts
23-Sep-18 09:16 35.718994 -115.626673 46 21195ft 444kts
23-Sep-18 09:17 35.822684 -115.565299 0 18201ft 422kts
23-Sep-18 09:18 35.938016 -115.562427 5 15200ft 409kts
23-Sep-18 09:19 36.007996 -115.473951 74 12195ft 363kts
23-Sep-18 09:20 36.029830 -115.365832 92 11054ft 282kts
23-Sep-18 09:21 36.023401 -115.269765 97 9317ft 273kts
23-Sep-18 09:22 36.016833 -115.177975 96 8192ft 265kts
23-Sep-18 09:23 36.010785 -115.087823 97 8061ft 248kts
23-Sep-18 09:24 36.005658 -115.002864 96 7545ft 252kts
23-Sep-18 09:25 36.001426 -114.914139 82 5541ft 266kts
23-Sep-18 09:26 36.055524 -114.877681 335 5074ft 241kts
23-Sep-18 09:27 36.076267 -114.947457 266 4740ft 210kts
23-Sep-18 09:28 36.073434 -115.012308 265 4032ft 173kts
23-Sep-18 09:29 36.073395 -115.061813 273 3065ft 135kts
23-Sep-18 09:30 36.073481 -115.108786 268 2440ft 136kts
23-Sep-18 09:31 36.073658 -115.144498 269 2195ft 30kts
23-Sep-18 09:32 36.074135 -115.149241 298 2195ft 0kts
23-Sep-18 09:33 36.074592 -115.150246 299 2195ft 6kts
23-Sep-18 09:34 36.077373 -115.152549 331 2195ft 15kts
23-Sep-18 09:35 36.081437 -115.154412 107 2195ft 9kts

Navigation Log

Ident Type
Flight plan parsing failed, navigation log unavailable